Time;durP1;ratioP1;P1;durP2;ratioP2;P2;SDS_P1;SDS_P2;PMS_P1;PMS_P2;Temp;Humidity;BMP_temperature;BMP_pressure;BME280_temperature;BME280_humidity;BME280_pressure;Samples;Min_cycle;Max_cycle;Signal;HPM_P1;HPM_P2
2020/12/27 00:00:38;;;;;;;9.00;5.70;;;0.60;79.70;;;;;;5006522;28;20202;-88
2020/12/27 00:03:03;;;;;;;10.57;6.33;;;0.60;80.00;;;;;;4989753;28;20561;-89
2020/12/27 00:05:29;;;;;;;7.70;6.07;;;0.50;80.30;;;;;;5007396;28;20174;-89
2020/12/27 00:07:54;;;;;;;7.10;5.83;;;0.60;80.50;;;;;;5007076;28;20230;-89
2020/12/27 00:10:20;;;;;;;7.17;5.70;;;0.60;80.20;;;;;;5006926;28;20257;-88
2020/12/27 00:12:46;;;;;;;6.97;6.27;;;0.70;79.70;;;;;;4989317;28;20187;-88
2020/12/27 00:15:12;;;;;;;9.07;6.77;;;0.60;80.00;;;;;;5007097;28;20193;-90
2020/12/27 00:17:38;;;;;;;8.93;6.77;;;0.60;80.70;;;;;;5005703;28;20210;-89
2020/12/27 00:20:05;;;;;;;7.53;6.23;;;0.50;80.60;;;;;;4989391;28;20210;-89
2020/12/27 00:22:31;;;;;;;9.87;5.70;;;0.50;80.80;;;;;;5006754;28;20284;-89
2020/12/27 00:24:57;;;;;;;8.73;6.60;;;0.60;80.30;;;;;;5007314;28;20182;-89
2020/12/27 00:27:22;;;;;;;11.70;6.90;;;0.60;80.50;;;;;;5007311;28;20194;-89
2020/12/27 00:29:48;;;;;;;9.37;6.47;;;0.60;80.40;;;;;;4990353;28;20281;-90
2020/12/27 00:32:14;;;;;;;9.23;6.33;;;0.50;80.80;;;;;;5008170;28;20600;-89
2020/12/27 00:34:39;;;;;;;9.57;6.70;;;0.50;80.60;;;;;;5008183;28;20245;-89
2020/12/27 00:37:05;;;;;;;7.73;5.43;;;0.50;80.60;;;;;;5006558;28;20183;-89
2020/12/27 00:39:31;;;;;;;8.70;5.67;;;0.60;80.10;;;;;;5007459;28;20210;-89
2020/12/27 00:42:01;;;;;;;7.20;6.50;;;0.50;80.30;;;;;;5009335;28;20167;-89
2020/12/27 00:44:27;;;;;;;7.17;5.67;;;0.40;80.00;;;;;;5008321;28;20197;-89
2020/12/27 00:46:53;;;;;;;8.23;6.10;;;0.50;80.60;;;;;;5009394;28;20681;-88
2020/12/27 00:49:20;;;;;;;6.77;5.17;;;0.60;80.20;;;;;;5009108;28;20203;-88
2020/12/27 00:51:46;;;;;;;8.33;5.50;;;0.60;79.60;;;;;;5007399;28;20186;-89
2020/12/27 00:54:12;;;;;;;8.17;5.60;;;0.60;80.10;;;;;;5009031;28;20181;-89
2020/12/27 00:56:38;;;;;;;6.87;5.50;;;0.60;79.60;;;;;;4990910;28;20185;-89
2020/12/27 00:59:04;;;;;;;8.40;5.70;;;0.50;79.80;;;;;;5008966;28;20242;-89
2020/12/27 01:01:30;;;;;;;6.83;5.53;;;0.50;80.20;;;;;;5009540;28;20285;-89
2020/12/27 01:03:56;;;;;;;9.13;6.17;;;0.50;80.70;;;;;;4991449;28;20194;-89
2020/12/27 01:06:26;;;;;;;9.17;5.80;;;0.40;80.20;;;;;;5006952;28;20264;-90
2020/12/27 01:08:53;;;;;;;7.70;5.33;;;0.40;80.50;;;;;;5007945;28;20206;-89
2020/12/27 01:11:19;;;;;;;9.47;5.50;;;0.50;80.50;;;;;;5007276;28;20198;-89
2020/12/27 01:13:44;;;;;;;6.87;5.57;;;0.50;79.90;;;;;;5009285;28;20223;-89
2020/12/27 01:16:21;;;;;;;8.03;5.47;;;0.50;80.60;;;;;;5009240;28;20273;-89
2020/12/27 01:18:48;;;;;;;9.30;5.90;;;0.60;79.80;;;;;;4991572;28;20210;-89
2020/12/27 01:21:28;;;;;;;8.43;5.63;;;0.50;79.90;;;;;;5008304;28;20217;-89
2020/12/27 01:23:58;;;;;;;8.47;5.77;;;0.50;79.80;;;;;;5009692;28;20185;-89
2020/12/27 01:26:28;;;;;;;7.27;4.60;;;0.50;79.40;;;;;;5009683;28;20190;-89
2020/12/27 01:28:54;;;;;;;8.37;5.30;;;0.40;79.50;;;;;;5008585;28;20202;-89
2020/12/27 01:31:20;;;;;;;7.97;5.23;;;0.40;79.80;;;;;;5008370;28;20266;-88
2020/12/27 01:33:46;;;;;;;7.30;5.50;;;0.30;80.40;;;;;;5007570;28;20198;-89
2020/12/27 01:36:12;;;;;;;5.93;4.63;;;0.30;80.30;;;;;;5006758;28;20194;-89
2020/12/27 01:38:38;;;;;;;6.40;5.17;;;0.30;80.40;;;;;;5007355;28;20211;-89
2020/12/27 01:41:05;;;;;;;7.07;4.90;;;0.40;80.20;;;;;;4983281;28;20298;-89
2020/12/27 01:43:31;;;;;;;5.30;4.80;;;0.40;80.20;;;;;;5005842;28;20186;-88
2020/12/27 01:45:57;;;;;;;8.50;5.00;;;0.30;80.60;;;;;;4969044;28;20186;-88
2020/12/27 01:48:23;;;;;;;7.97;5.40;;;0.30;80.60;;;;;;4986614;28;20213;-88
2020/12/27 01:50:51;;;;;;;6.47;4.83;;;0.30;81.00;;;;;;4985904;28;20186;-88
2020/12/27 01:53:17;;;;;;;5.93;5.23;;;0.30;80.80;;;;;;5004404;28;20186;-88
2020/12/27 01:55:42;;;;;;;7.07;4.80;;;0.30;81.00;;;;;;5003263;28;20190;-88
2020/12/27 01:58:15;;;;;;;6.47;5.30;;;0.30;80.70;;;;;;5004414;28;20225;-88
2020/12/27 02:00:42;;;;;;;5.27;4.37;;;0.30;81.50;;;;;;5004367;28;20206;-88
2020/12/27 02:03:09;;;;;;;8.13;5.07;;;0.30;81.00;;;;;;5004987;28;20189;-88
2020/12/27 02:05:35;;;;;;;7.43;4.70;;;0.30;81.10;;;;;;5005702;28;20264;-88
2020/12/27 02:08:03;;;;;;;8.97;4.93;;;0.30;80.80;;;;;;4971279;28;20206;-88
2020/12/27 02:10:30;;;;;;;7.17;4.63;;;0.40;80.90;;;;;;5003925;28;20178;-88
2020/12/27 02:12:56;;;;;;;7.43;4.80;;;0.30;80.70;;;;;;5003667;28;20684;-88
2020/12/27 02:15:22;;;;;;;5.60;5.00;;;0.30;80.60;;;;;;5004774;28;20194;-88
2020/12/27 02:17:48;;;;;;;7.53;4.93;;;0.30;80.90;;;;;;4988367;28;20213;-88
2020/12/27 02:20:19;;;;;;;6.37;4.90;;;0.40;80.50;;;;;;5005156;28;20206;-88
2020/12/27 02:22:48;;;;;;;7.73;5.00;;;0.40;80.40;;;;;;5004189;28;20202;-87
2020/12/27 02:25:15;;;;;;;8.80;5.53;;;0.40;80.00;;;;;;5005549;28;20194;-88
2020/12/27 02:27:41;;;;;;;8.00;5.70;;;0.40;80.00;;;;;;5005645;28;20198;-89
2020/12/27 02:30:10;;;;;;;6.73;4.67;;;0.40;80.40;;;;;;5006342;28;20190;-88
2020/12/27 02:32:36;;;;;;;6.40;4.47;;;0.30;80.10;;;;;;5005545;28;20230;-89
2020/12/27 02:35:03;;;;;;;7.47;5.00;;;0.40;80.20;;;;;;4989199;28;20247;-89
2020/12/27 02:37:29;;;;;;;9.53;5.33;;;0.50;79.80;;;;;;4973355;28;20194;-88
2020/12/27 02:39:55;;;;;;;6.77;5.13;;;0.50;79.60;;;;;;4989094;28;20213;-89
2020/12/27 02:42:21;;;;;;;6.13;4.20;;;0.60;79.10;;;;;;5006929;28;20192;-88
2020/12/27 02:47:28;;;;;;;6.83;4.83;;;0.60;79.20;;;;;;4992552;28;20177;-88
2020/12/27 02:49:54;;;;;;;5.50;4.30;;;0.60;79.20;;;;;;5008415;28;20210;-88
2020/12/27 02:52:20;;;;;;;7.43;4.40;;;0.70;79.00;;;;;;5007715;28;20213;-88
2020/12/27 02:54:45;;;;;;;6.93;4.67;;;0.70;78.70;;;;;;4990881;28;20190;-89
2020/12/27 02:57:11;;;;;;;5.20;4.70;;;0.60;78.90;;;;;;5007725;28;20194;-88
2020/12/27 02:59:37;;;;;;;6.47;4.80;;;0.60;79.20;;;;;;5008184;28;20218;-89
2020/12/27 03:02:02;;;;;;;5.70;4.30;;;0.70;78.80;;;;;;5008123;28;20233;-89
2020/12/27 03:04:28;;;;;;;9.90;5.50;;;0.70;78.60;;;;;;5008029;28;20191;-90
2020/12/27 03:06:54;;;;;;;8.03;4.50;;;0.60;79.40;;;;;;4990865;28;20198;-89
2020/12/27 03:09:20;;;;;;;6.10;4.90;;;0.70;78.80;;;;;;5006388;28;20221;-89
2020/12/27 03:11:45;;;;;;;8.17;4.53;;;0.70;78.70;;;;;;4990613;28;20209;-89
2020/12/27 03:14:11;;;;;;;6.17;4.60;;;0.70;79.00;;;;;;5007176;28;20226;-89
2020/12/27 03:16:38;;;;;;;7.90;4.40;;;0.80;78.70;;;;;;4990590;28;20221;-88
2020/12/27 03:19:03;;;;;;;6.47;4.30;;;0.70;78.40;;;;;;4958290;28;20213;-87
2020/12/27 03:21:29;;;;;;;7.30;4.73;;;0.70;78.60;;;;;;4990859;28;20218;-89
2020/12/27 03:23:55;;;;;;;6.90;5.33;;;0.70;79.10;;;;;;4990897;28;20197;-87
2020/12/27 03:26:20;;;;;;;10.17;5.07;;;0.70;78.80;;;;;;5008154;28;20244;-88
2020/12/27 03:28:46;;;;;;;7.43;4.97;;;0.60;79.00;;;;;;5024957;22;20241;-89
2020/12/27 03:31:13;;;;;;;7.37;4.77;;;0.60;78.90;;;;;;5027169;28;20193;-88
2020/12/27 03:33:39;;;;;;;5.93;4.57;;;0.60;78.50;;;;;;5026388;28;20244;-88
2020/12/27 03:36:05;;;;;;;5.57;4.80;;;0.60;78.90;;;;;;5026655;28;20185;-89
2020/12/27 03:38:31;;;;;;;8.93;5.47;;;0.60;78.30;;;;;;5025532;28;20201;-88
2020/12/27 03:40:57;;;;;;;8.00;5.07;;;0.70;77.90;;;;;;5027515;28;20209;-88
2020/12/27 03:43:22;;;;;;;6.20;4.67;;;0.70;77.90;;;;;;5035456;28;20188;-88
2020/12/27 03:45:48;;;;;;;6.20;4.67;;;0.70;77.80;;;;;;5027218;28;20185;-88
2020/12/27 03:48:14;;;;;;;6.57;4.57;;;0.70;77.50;;;;;;5018611;23;20234;-89
2020/12/27 03:50:40;;;;;;;5.23;4.27;;;0.60;78.20;;;;;;5009509;28;20181;-88
2020/12/27 03:53:06;;;;;;;5.83;4.53;;;0.70;77.60;;;;;;5020900;28;20224;-88
2020/12/27 03:55:32;;;;;;;5.30;4.67;;;0.70;78.10;;;;;;5021471;28;20244;-89
2020/12/27 03:57:58;;;;;;;5.23;3.77;;;0.60;78.50;;;;;;5022591;28;20224;-88
2020/12/27 04:00:24;;;;;;;7.47;4.87;;;0.60;78.30;;;;;;5022142;28;20296;-88
2020/12/27 04:02:53;;;;;;;7.67;4.10;;;0.70;78.30;;;;;;5022484;28;20189;-88
2020/12/27 04:05:18;;;;;;;5.37;4.40;;;0.70;77.80;;;;;;5022634;28;20269;-88
2020/12/27 04:07:44;;;;;;;7.43;4.47;;;0.70;77.90;;;;;;5022218;28;20206;-89
2020/12/27 04:10:09;;;;;;;6.60;4.30;;;0.70;78.10;;;;;;5022633;28;20225;-89
2020/12/27 04:12:35;;;;;;;6.37;4.00;;;0.60;79.10;;;;;;5023675;28;20237;-88
2020/12/27 04:15:01;;;;;;;4.43;3.53;;;0.60;78.50;;;;;;5023115;28;20224;-88
2020/12/27 04:17:27;;;;;;;6.80;4.50;;;0.60;77.80;;;;;;5001047;28;20194;-88
2020/12/27 04:19:52;;;;;;;7.33;3.80;;;0.70;77.90;;;;;;5004694;28;20262;-87
2020/12/27 04:22:18;;;;;;;5.80;4.07;;;0.60;78.30;;;;;;5006443;28;20187;-88
2020/12/27 04:24:44;;;;;;;6.63;4.10;;;0.60;79.00;;;;;;4988744;28;20183;-87
2020/12/27 04:27:10;;;;;;;5.20;3.67;;;0.60;78.40;;;;;;5006124;28;20250;-88
2020/12/27 04:29:35;;;;;;;6.90;4.23;;;0.60;79.40;;;;;;5005129;28;20221;-88
2020/12/27 04:32:01;;;;;;;5.60;4.10;;;0.60;79.40;;;;;;5009281;28;20568;-88
2020/12/27 04:34:27;;;;;;;6.37;4.10;;;0.60;79.00;;;;;;5010705;28;20185;-88
2020/12/27 04:36:53;;;;;;;5.80;4.23;;;0.70;78.40;;;;;;5009848;28;20179;-87
2020/12/27 04:39:18;;;;;;;4.63;3.90;;;0.60;79.40;;;;;;5008197;28;20222;-88
2020/12/27 04:41:45;;;;;;;5.87;3.70;;;0.80;79.00;;;;;;5009271;28;20206;-88
2020/12/27 04:44:11;;;;;;;5.13;3.63;;;0.90;77.10;;;;;;5008147;28;20186;-88
2020/12/27 04:46:40;;;;;;;5.03;4.17;;;0.80;78.60;;;;;;5008976;28;20204;-88
2020/12/27 04:49:08;;;;;;;6.00;3.60;;;0.90;77.00;;;;;;5007384;28;20222;-88
2020/12/27 04:51:35;;;;;;;5.13;3.70;;;0.90;77.70;;;;;;5009435;28;20185;-88
2020/12/27 04:54:02;;;;;;;6.13;3.77;;;0.90;77.50;;;;;;5009818;28;20188;-88
2020/12/27 04:56:28;;;;;;;6.97;3.63;;;0.70;78.60;;;;;;5009044;28;20186;-88
2020/12/27 04:58:55;;;;;;;5.03;3.40;;;0.80;78.20;;;;;;5022323;28;20209;-88
2020/12/27 05:01:21;;;;;;;3.97;3.40;;;0.80;77.70;;;;;;5028475;28;20202;-88
2020/12/27 05:03:50;;;;;;;4.40;3.40;;;0.90;77.50;;;;;;5028413;28;20193;-88
2020/12/27 05:06:16;;;;;;;4.00;3.10;;;0.90;76.60;;;;;;5031003;28;20179;-88
2020/12/27 05:08:46;;;;;;;5.80;3.77;;;0.90;76.50;;;;;;5029125;28;20201;-88
2020/12/27 05:11:16;;;;;;;4.77;4.00;;;0.90;77.50;;;;;;5028570;28;20221;-88
2020/12/27 05:13:46;;;;;;;3.97;3.20;;;0.90;76.90;;;;;;5026609;28;20185;-88
2020/12/27 05:16:14;;;;;;;7.53;3.60;;;0.90;76.30;;;;;;5028891;28;20205;-88
2020/12/27 05:18:40;;;;;;;5.90;3.43;;;0.80;76.60;;;;;;5027292;28;20220;-87
2020/12/27 05:21:06;;;;;;;5.37;3.53;;;1.00;75.90;;;;;;5027262;28;20220;-87
2020/12/27 05:23:32;;;;;;;4.40;3.67;;;0.90;76.80;;;;;;5027680;28;20185;-88
2020/12/27 05:26:04;;;;;;;4.87;3.10;;;0.80;76.00;;;;;;5023163;28;20187;-88
2020/12/27 05:28:32;;;;;;;4.33;2.90;;;0.90;76.50;;;;;;5008847;28;20198;-88
2020/12/27 05:30:58;;;;;;;4.33;3.30;;;0.90;75.90;;;;;;5008429;28;20198;-89
2020/12/27 05:33:24;;;;;;;5.87;3.33;;;1.00;75.70;;;;;;5008440;28;20209;-88
2020/12/27 05:36:01;;;;;;;6.37;3.40;;;0.90;75.20;;;;;;5008592;28;20182;-88
2020/12/27 05:38:29;;;;;;;3.13;2.83;;;0.90;76.00;;;;;;5008438;28;20233;-89
2020/12/27 05:40:55;;;;;;;4.23;2.70;;;1.00;74.90;;;;;;5019280;28;20245;-88
2020/12/27 05:43:21;;;;;;;3.87;2.70;;;1.00;75.30;;;;;;5026006;28;20182;-88
2020/12/27 05:45:47;;;;;;;3.37;2.60;;;0.90;75.30;;;;;;5026892;28;20185;-88
2020/12/27 05:48:12;;;;;;;3.47;2.70;;;0.90;74.90;;;;;;5027834;28;20206;-87
2020/12/27 05:50:43;;;;;;;3.00;2.60;;;0.90;75.30;;;;;;5026933;28;20811;-88
2020/12/27 05:53:35;;;;;;;3.67;2.70;;;0.90;75.50;;;;;;5027781;28;20268;-88
2020/12/27 05:56:01;;;;;;;3.80;2.57;;;0.90;75.50;;;;;;5019346;28;20585;-88
2020/12/27 05:58:27;;;;;;;4.17;2.40;;;1.00;74.20;;;;;;5007236;28;20229;-88
2020/12/27 06:00:54;;;;;;;4.20;2.73;;;0.90;74.40;;;;;;5012682;28;20201;-88
2020/12/27 06:03:22;;;;;;;5.13;2.40;;;1.00;74.00;;;;;;5026262;28;20178;-88
2020/12/27 06:05:53;;;;;;;2.87;2.43;;;1.00;74.10;;;;;;5026512;28;20182;-89
2020/12/27 06:08:28;;;;;;;3.53;2.37;;;1.10;73.90;;;;;;5027515;28;20213;-89
2020/12/27 06:11:06;;;;;;;2.80;2.47;;;1.10;73.90;;;;;;5027200;28;20173;-88
2020/12/27 06:13:58;;;;;;;2.03;1.83;;;1.10;73.20;;;;;;5027362;28;20216;-87
2020/12/27 06:17:02;;;;;;;2.70;2.30;;;1.20;72.10;;;;;;5012148;28;20615;-88
2020/12/27 06:19:40;;;;;;;2.37;2.03;;;1.20;72.40;;;;;;5025478;28;20221;-88
2020/12/27 06:22:09;;;;;;;2.83;2.20;;;1.20;72.20;;;;;;5028245;28;20192;-87
2020/12/27 06:24:37;;;;;;;2.63;1.87;;;1.20;71.80;;;;;;5025994;28;20240;-88
2020/12/27 06:27:04;;;;;;;3.80;2.17;;;1.20;71.40;;;;;;5026255;28;20182;-88
2020/12/27 06:29:41;;;;;;;2.70;2.20;;;1.40;72.00;;;;;;5027086;28;20247;-88
2020/12/27 06:32:09;;;;;;;2.40;2.10;;;1.30;72.20;;;;;;5027932;28;20192;-87
2020/12/27 06:34:35;;;;;;;2.80;2.00;;;1.30;71.30;;;;;;5025915;28;20193;-88
2020/12/27 06:37:05;;;;;;;2.23;2.03;;;1.30;71.00;;;;;;5026490;28;20189;-87
2020/12/27 06:39:31;;;;;;;4.03;2.20;;;1.30;70.50;;;;;;5014965;28;20225;-89
2020/12/27 06:42:11;;;;;;;2.90;2.17;;;1.30;71.30;;;;;;5006955;28;20277;-87
2020/12/27 06:44:42;;;;;;;1.90;1.80;;;1.40;70.80;;;;;;5019372;28;20237;-88
2020/12/27 06:47:09;;;;;;;2.00;1.80;;;1.40;70.40;;;;;;5023486;28;20268;-87
2020/12/27 06:49:34;;;;;;;3.37;2.40;;;1.30;71.10;;;;;;5024881;28;20332;-88
2020/12/27 06:52:23;;;;;;;3.13;1.90;;;1.40;70.60;;;;;;5026572;28;20613;-87
2020/12/27 06:54:54;;;;;;;2.47;2.00;;;1.40;70.70;;;;;;5027340;28;20185;-87
2020/12/27 06:57:47;;;;;;;2.20;1.97;;;1.40;71.00;;;;;;5026734;28;20166;-88
2020/12/27 07:00:31;;;;;;;3.07;2.00;;;1.50;70.50;;;;;;5028064;28;20204;-88
2020/12/27 07:03:15;;;;;;;2.47;2.27;;;1.50;70.70;;;;;;5027457;28;20162;-88
2020/12/27 07:05:41;;;;;;;1.87;1.77;;;1.50;71.20;;;;;;5026854;28;20225;-88
2020/12/27 07:08:12;;;;;;;2.20;1.90;;;1.50;70.20;;;;;;5026638;28;20680;-88
2020/12/27 07:10:49;;;;;;;2.07;1.63;;;1.40;70.40;;;;;;5029680;28;20166;-88
2020/12/27 07:13:16;;;;;;;2.70;1.60;;;1.40;70.30;;;;;;5027477;28;20200;-88
2020/12/27 07:15:59;;;;;;;2.53;1.60;;;1.50;70.50;;;;;;5025956;28;20178;-88
2020/12/27 07:18:26;;;;;;;4.13;2.00;;;1.50;70.60;;;;;;5026522;28;20189;-88
2020/12/27 07:20:57;;;;;;;2.30;1.80;;;1.30;71.10;;;;;;5009944;28;20221;-88
2020/12/27 07:23:25;;;;;;;6.50;1.97;;;1.40;71.00;;;;;;5006189;28;20182;-88
2020/12/27 07:25:59;;;;;;;2.10;1.77;;;1.40;70.60;;;;;;5007289;28;20241;-89
2020/12/27 07:28:25;;;;;;;2.03;1.80;;;1.40;71.70;;;;;;5006433;28;20197;-88
2020/12/27 07:31:02;;;;;;;3.13;1.90;;;1.50;71.30;;;;;;5006330;28;20187;-89
2020/12/27 07:33:34;;;;;;;2.30;1.80;;;1.40;71.00;;;;;;5007299;28;20557;-89
2020/12/27 07:36:08;;;;;;;3.13;1.97;;;1.50;70.70;;;;;;5008152;28;20201;-88
2020/12/27 07:38:39;;;;;;;2.57;1.83;;;1.40;71.20;;;;;;5006936;28;20668;-88
2020/12/27 07:41:06;;;;;;;2.80;1.60;;;1.40;71.50;;;;;;5007356;28;20205;-89
2020/12/27 07:43:32;;;;;;;3.77;1.60;;;1.40;71.00;;;;;;5007745;28;20183;-89
2020/12/27 07:46:06;;;;;;;1.57;1.47;;;1.40;70.50;;;;;;5005551;28;20187;-88
2020/12/27 07:48:31;;;;;;;2.83;1.70;;;1.50;71.10;;;;;;5007697;28;20293;-90
2020/12/27 07:51:19;;;;;;;1.97;1.70;;;1.40;71.90;;;;;;5013095;28;20553;-89
2020/12/27 07:53:50;;;;;;;2.50;1.90;;;1.30;71.60;;;;;;4992433;28;20193;-89
2020/12/27 07:56:21;;;;;;;3.83;1.60;;;1.30;71.50;;;;;;5008227;28;20590;-90
2020/12/27 07:58:49;;;;;;;2.97;1.60;;;1.30;71.60;;;;;;5006381;28;20225;-89
2020/12/27 08:01:41;;;;;;;3.67;1.83;;;1.40;71.70;;;;;;5006182;28;20214;-90
2020/12/27 08:04:07;;;;;;;1.97;1.70;;;1.30;72.00;;;;;;5008101;28;20209;-90
2020/12/27 08:06:40;;;;;;;2.10;1.90;;;1.40;72.40;;;;;;5008409;28;20185;-89
2020/12/27 08:09:08;;;;;;;2.07;1.57;;;1.50;70.90;;;;;;5011615;28;20298;-90
2020/12/27 08:11:36;;;;;;;3.93;1.97;;;1.40;71.80;;;;;;5010738;28;20281;-89
2020/12/27 08:14:12;;;;;;;2.77;1.70;;;1.40;72.10;;;;;;5010603;28;20179;-89
2020/12/27 08:16:40;;;;;;;2.60;1.80;;;1.40;71.50;;;;;;5012333;28;20606;-89
2020/12/27 08:19:12;;;;;;;3.53;1.80;;;1.40;71.50;;;;;;5010315;28;20594;-90
2020/12/27 08:21:41;;;;;;;2.40;1.57;;;1.40;71.60;;;;;;5009492;28;20194;-90
2020/12/27 08:24:14;;;;;;;2.07;1.80;;;1.40;71.90;;;;;;5009182;28;20166;-90
2020/12/27 08:26:45;;;;;;;1.93;1.73;;;1.50;71.70;;;;;;5010724;28;20545;-90
2020/12/27 08:29:15;;;;;;;2.53;1.80;;;1.50;71.50;;;;;;5013649;28;20202;-89
2020/12/27 08:31:43;;;;;;;1.80;1.70;;;1.50;71.40;;;;;;5011577;28;20209;-88
2020/12/27 08:34:11;;;;;;;2.30;1.60;;;1.50;71.80;;;;;;5008395;28;20182;-89
2020/12/27 08:36:44;;;;;;;2.57;1.93;;;1.60;71.00;;;;;;5010848;28;20170;-88
2020/12/27 08:39:25;;;;;;;1.93;1.70;;;1.70;71.50;;;;;;5010423;28;20284;-89
2020/12/27 08:42:04;;;;;;;2.17;1.80;;;1.60;71.60;;;;;;5009487;28;20227;-89
2020/12/27 08:44:34;;;;;;;2.80;1.70;;;1.70;71.50;;;;;;5008616;28;20174;-88
2020/12/27 08:47:03;;;;;;;3.70;1.73;;;1.80;71.10;;;;;;5009636;28;20167;-89
2020/12/27 08:49:43;;;;;;;2.13;1.70;;;1.70;71.80;;;;;;5009199;28;20226;-88
2020/12/27 08:52:25;;;;;;;2.30;1.87;;;1.80;70.60;;;;;;5010535;28;20162;-89
2020/12/27 08:55:00;;;;;;;2.97;2.17;;;1.80;71.50;;;;;;5009742;28;20249;-90
2020/12/27 08:57:26;;;;;;;3.90;3.60;;;1.80;71.40;;;;;;5008972;28;20190;-89
2020/12/27 09:00:05;;;;;;;2.03;1.80;;;1.80;71.60;;;;;;4992135;28;20178;-88
2020/12/27 09:02:31;;;;;;;2.33;2.10;;;1.90;71.00;;;;;;5019219;28;20193;-89
2020/12/27 09:05:04;;;;;;;2.43;1.40;;;2.00;71.00;;;;;;4994575;28;20186;-88
2020/12/27 09:07:41;;;;;;;1.77;1.67;;;2.00;71.20;;;;;;5010086;28;20246;-89
2020/12/27 09:10:09;;;;;;;2.90;1.60;;;2.10;71.00;;;;;;5010677;28;20174;-88
2020/12/27 09:12:36;;;;;;;1.70;1.60;;;2.10;70.60;;;;;;5009983;28;20242;-89
2020/12/27 09:15:24;;;;;;;2.33;2.00;;;2.20;71.20;;;;;;5009843;28;20186;-89
2020/12/27 09:18:01;;;;;;;1.87;1.67;;;2.10;71.30;;;;;;5008958;28;20190;-89
2020/12/27 09:20:28;;;;;;;2.20;2.00;;;2.20;70.70;;;;;;5010512;28;20186;-90
2020/12/27 09:22:54;;;;;;;2.53;2.07;;;2.20;70.90;;;;;;4991941;28;20197;-90
2020/12/27 09:25:22;;;;;;;2.37;1.97;;;2.40;70.60;;;;;;5009312;28;20186;-90
2020/12/27 09:27:51;;;;;;;3.77;2.83;;;2.30;70.20;;;;;;5008898;28;20199;-90
2020/12/27 09:30:22;;;;;;;2.00;1.80;;;2.40;70.20;;;;;;5008360;28;20257;-90
2020/12/27 09:32:48;;;;;;;3.23;2.00;;;2.40;70.60;;;;;;5009294;28;20197;-89
2020/12/27 09:35:23;;;;;;;1.60;1.50;;;2.40;70.20;;;;;;5009751;28;20193;-90
2020/12/27 09:37:49;;;;;;;2.63;1.90;;;2.40;69.80;;;;;;5009038;28;20206;-89
2020/12/27 09:40:17;;;;;;;1.80;1.40;;;2.40;70.20;;;;;;5000204;28;20217;-89
2020/12/27 09:42:44;;;;;;;2.17;1.50;;;2.50;70.20;;;;;;5002661;28;20202;-89
2020/12/27 09:45:39;;;;;;;1.67;1.57;;;2.50;70.20;;;;;;5003442;28;20238;-89
2020/12/27 09:48:08;;;;;;;1.67;1.57;;;2.60;69.50;;;;;;4988918;28;20218;-89
2020/12/27 09:50:37;;;;;;;3.67;1.60;;;2.70;68.70;;;;;;5005758;28;20549;-89
2020/12/27 09:53:06;;;;;;;2.73;1.57;;;2.70;69.50;;;;;;5007694;28;20183;-89
2020/12/27 09:55:34;;;;;;;2.77;1.83;;;2.70;69.30;;;;;;5007697;28;20186;-89
2020/12/27 09:58:00;;;;;;;1.97;1.60;;;2.80;68.80;;;;;;4989927;28;20220;-88
2020/12/27 10:00:26;;;;;;;1.67;1.47;;;2.90;68.20;;;;;;5000806;28;20588;-88
2020/12/27 10:02:52;;;;;;;2.10;1.90;;;2.90;69.00;;;;;;5000359;28;20183;-89
2020/12/27 10:05:17;;;;;;;2.17;1.77;;;2.90;68.30;;;;;;5001797;28;20559;-88
2020/12/27 10:07:44;;;;;;;1.63;1.53;;;2.90;69.70;;;;;;5001988;28;20195;-89
2020/12/27 10:10:12;;;;;;;2.80;1.63;;;3.00;68.70;;;;;;5002932;28;20205;-89
2020/12/27 10:12:39;;;;;;;2.47;1.63;;;3.10;67.70;;;;;;4999982;28;20178;-88
2020/12/27 10:15:07;;;;;;;1.53;1.43;;;3.20;67.70;;;;;;5001101;28;20182;-88
2020/12/27 10:17:33;;;;;;;4.63;1.70;;;3.20;67.70;;;;;;5001713;28;20201;-88
2020/12/27 10:20:00;;;;;;;2.10;1.80;;;3.20;67.60;;;;;;5005334;28;20178;-89
2020/12/27 10:22:27;;;;;;;1.90;1.80;;;3.30;68.00;;;;;;5002996;28;20867;-89
2020/12/27 10:24:53;;;;;;;3.43;1.93;;;3.10;68.00;;;;;;5004578;28;20182;-88
2020/12/27 10:27:18;;;;;;;3.20;2.00;;;3.10;68.30;;;;;;5007161;28;20194;-89
2020/12/27 10:29:44;;;;;;;2.43;1.80;;;3.20;67.70;;;;;;5004461;28;20203;-89
2020/12/27 10:32:10;;;;;;;2.07;1.70;;;3.30;67.70;;;;;;5006041;28;20194;-88
2020/12/27 10:34:36;;;;;;;1.77;1.67;;;3.40;67.80;;;;;;5002491;28;20266;-89
2020/12/27 10:37:03;;;;;;;1.70;1.60;;;3.30;67.40;;;;;;5001620;28;20183;-89
2020/12/27 10:39:29;;;;;;;4.37;2.17;;;3.30;68.60;;;;;;5007905;28;20217;-88
2020/12/27 10:41:56;;;;;;;2.70;1.73;;;3.40;67.90;;;;;;5005052;28;20297;-88
2020/12/27 10:44:23;;;;;;;2.07;1.83;;;3.40;68.00;;;;;;5004921;28;20236;-89
2020/12/27 10:46:50;;;;;;;3.03;1.80;;;3.40;68.80;;;;;;5011918;28;20209;-88
2020/12/27 10:49:17;;;;;;;1.87;1.63;;;3.40;69.30;;;;;;5018666;28;20264;-88
2020/12/27 10:51:43;;;;;;;4.37;2.00;;;3.40;68.90;;;;;;5003610;28;20260;-88
2020/12/27 10:54:11;;;;;;;1.73;1.37;;;3.40;69.50;;;;;;5005592;28;20276;-88
2020/12/27 10:56:41;;;;;;;1.90;1.77;;;3.40;69.30;;;;;;5003471;28;20190;-89
2020/12/27 10:59:06;;;;;;;1.57;1.47;;;3.40;69.20;;;;;;5010875;28;20233;-89
2020/12/27 11:01:32;;;;;;;2.33;2.07;;;3.50;69.40;;;;;;5012090;28;20213;-90
2020/12/27 11:03:58;;;;;;;2.67;1.90;;;3.80;69.50;;;;;;5011820;28;20241;-89
2020/12/27 11:06:31;;;;;;;4.20;2.03;;;3.90;68.60;;;;;;5012855;28;20182;-89
2020/12/27 11:08:58;;;;;;;1.87;1.60;;;3.80;68.40;;;;;;5013084;28;20202;-88
2020/12/27 11:11:24;;;;;;;1.97;1.87;;;3.90;67.70;;;;;;5011677;28;20193;-89
2020/12/27 11:13:49;;;;;;;1.90;1.80;;;4.10;67.10;;;;;;5008344;28;20213;-90
2020/12/27 11:16:16;;;;;;;2.30;2.10;;;4.10;67.00;;;;;;4991857;28;20194;-88
2020/12/27 11:18:41;;;;;;;3.20;2.13;;;4.10;67.60;;;;;;5006715;28;20228;-88
2020/12/27 11:21:07;;;;;;;2.87;2.03;;;4.20;67.50;;;;;;5013796;28;20301;-90
2020/12/27 11:23:33;;;;;;;2.10;1.90;;;4.30;67.00;;;;;;5013465;28;20182;-88
2020/12/27 11:25:59;;;;;;;1.63;1.53;;;4.30;67.50;;;;;;5008813;28;20181;-90
2020/12/27 11:28:25;;;;;;;2.30;1.80;;;4.40;66.30;;;;;;5010555;28;20214;-89
2020/12/27 11:30:50;;;;;;;3.77;1.70;;;4.50;66.80;;;;;;5012988;28;20201;-88
2020/12/27 11:33:16;;;;;;;2.30;1.97;;;4.50;66.70;;;;;;5010325;28;20224;-88
2020/12/27 11:35:43;;;;;;;1.47;1.37;;;4.50;66.00;;;;;;5015218;28;20280;-89
2020/12/27 11:38:08;;;;;;;1.93;1.70;;;4.60;66.30;;;;;;5014381;28;20316;-89
2020/12/27 11:40:34;;;;;;;3.40;2.40;;;4.50;67.10;;;;;;5015627;28;20305;-89
2020/12/27 11:43:00;;;;;;;4.13;2.67;;;4.60;67.00;;;;;;5013601;28;20178;-89
2020/12/27 11:45:26;;;;;;;2.27;1.70;;;4.60;66.90;;;;;;5017471;28;20262;-89
2020/12/27 11:47:51;;;;;;;2.50;1.63;;;4.60;66.00;;;;;;5015118;28;20241;-88
2020/12/27 11:50:17;;;;;;;2.83;2.00;;;4.70;67.20;;;;;;5020332;28;20205;-89
2020/12/27 11:52:43;;;;;;;2.67;1.93;;;4.70;66.80;;;;;;5015047;28;20193;-89
2020/12/27 11:55:09;;;;;;;2.17;1.83;;;4.80;66.90;;;;;;5018105;28;20248;-88
2020/12/27 11:57:35;;;;;;;3.83;2.70;;;4.70;66.30;;;;;;5019642;28;20182;-89
2020/12/27 12:00:08;;;;;;;2.37;1.97;;;4.80;67.30;;;;;;5020226;28;20689;-88
2020/12/27 12:02:33;;;;;;;2.63;1.90;;;4.80;66.10;;;;;;5014283;28;20190;-89
2020/12/27 12:04:59;;;;;;;2.43;2.07;;;4.90;66.70;;;;;;5016672;28;20241;-88
2020/12/27 12:07:25;;;;;;;1.70;1.60;;;5.00;66.00;;;;;;4994400;28;20186;-89
2020/12/27 12:09:50;;;;;;;2.87;2.10;;;4.90;66.40;;;;;;5016600;28;20181;-89
2020/12/27 12:12:16;;;;;;;1.80;1.70;;;5.00;66.30;;;;;;5012434;28;20193;-91
2020/12/27 12:14:42;;;;;;;3.80;2.07;;;5.00;65.80;;;;;;4996121;28;20183;-91
2020/12/27 12:17:07;;;;;;;2.70;2.10;;;5.10;65.50;;;;;;5015281;28;20189;-90
2020/12/27 12:19:33;;;;;;;1.93;1.73;;;5.10;66.10;;;;;;5018382;28;20206;-90
2020/12/27 12:21:59;;;;;;;4.07;2.00;;;5.10;66.60;;;;;;4998470;28;20228;-90
2020/12/27 12:24:25;;;;;;;1.83;1.50;;;5.20;66.10;;;;;;5015338;28;20217;-90
2020/12/27 12:26:51;;;;;;;2.40;2.03;;;5.30;65.50;;;;;;5011799;28;20230;-90
2020/12/27 12:29:17;;;;;;;3.07;2.23;;;5.20;66.10;;;;;;5016888;28;20208;-90
2020/12/27 12:31:43;;;;;;;1.87;1.63;;;5.30;65.50;;;;;;5025133;28;20209;-90
2020/12/27 12:34:10;;;;;;;8.80;3.73;;;5.40;64.50;;;;;;5010859;28;20303;-91
2020/12/27 12:36:36;;;;;;;3.07;2.13;;;5.20;66.70;;;;;;5006533;28;20183;-90
2020/12/27 12:39:03;;;;;;;2.60;1.70;;;5.20;66.70;;;;;;5011662;28;20219;-89
2020/12/27 12:41:32;;;;;;;1.60;1.33;;;5.30;67.10;;;;;;5014044;28;20755;-90
2020/12/27 12:44:01;;;;;;;4.13;2.13;;;5.30;65.40;;;;;;5014042;28;20178;-89
2020/12/27 12:46:27;;;;;;;1.60;1.50;;;5.30;66.80;;;;;;5016966;28;20228;-89
2020/12/27 12:48:56;;;;;;;2.20;1.80;;;5.20;66.20;;;;;;5011691;28;20226;-88
2020/12/27 12:51:23;;;;;;;1.90;1.70;;;5.20;66.80;;;;;;5006499;28;20186;-88
2020/12/27 12:53:49;;;;;;;2.10;1.80;;;5.30;66.20;;;;;;5006094;28;20289;-89
2020/12/27 12:56:15;;;;;;;2.33;1.40;;;5.40;66.90;;;;;;5007103;28;20186;-88
2020/12/27 12:58:41;;;;;;;2.10;1.90;;;5.30;66.90;;;;;;5005151;28;20255;-89
2020/12/27 13:01:09;;;;;;;2.17;1.60;;;5.40;66.90;;;;;;5006534;28;20246;-89
2020/12/27 13:03:35;;;;;;;1.80;1.60;;;5.40;66.90;;;;;;5006700;28;20418;-89
2020/12/27 13:06:01;;;;;;;2.17;1.70;;;5.50;66.80;;;;;;4990259;28;20202;-89